createdAt,value
2023-02-03T00:00:08.926Z,85.95
2023-02-03T00:02:59.745Z,86.29
2023-02-03T00:05:28.333Z,86.61
2023-02-03T00:07:56.396Z,86.29
2023-02-03T00:10:24.752Z,86.50
2023-02-03T00:12:53.726Z,86.51
2023-02-03T00:15:23.209Z,86.34
2023-02-03T00:17:51.283Z,86.26
2023-02-03T00:20:19.753Z,86.68
2023-02-03T00:22:47.912Z,87.23
2023-02-03T00:25:16.031Z,86.40
2023-02-03T00:27:44.877Z,86.73
2023-02-03T00:30:13.331Z,85.83
2023-02-03T00:32:41.391Z,85.69
2023-02-03T00:35:09.427Z,85.63
2023-02-03T00:37:38.143Z,86.05
2023-02-03T00:40:07.059Z,86.04
2023-02-03T00:42:35.898Z,85.44
2023-02-03T00:45:04.388Z,85.49
2023-02-03T00:47:32.411Z,85.41
2023-02-03T00:50:00.422Z,85.52
2023-02-03T00:52:28.416Z,85.59
2023-02-03T00:54:56.913Z,85.36
2023-02-03T00:57:25.103Z,85.65
2023-02-03T00:59:54.260Z,85.41
2023-02-03T01:02:22.669Z,85.51
2023-02-03T01:04:50.748Z,85.38
2023-02-03T01:07:19.169Z,85.73
2023-02-03T01:09:47.134Z,85.46
2023-02-03T01:12:15.130Z,85.39
2023-02-03T01:14:43.235Z,85.73
2023-02-03T01:17:11.322Z,85.66
2023-02-03T01:19:39.316Z,85.84
2023-02-03T01:22:07.342Z,86.10
2023-02-03T01:24:35.395Z,86.16
2023-02-03T01:27:03.476Z,86.19
2023-02-03T01:29:31.693Z,86.24
2023-02-03T01:31:59.875Z,86.28
2023-02-03T01:34:29.071Z,86.11
2023-02-03T01:36:57.179Z,85.95
2023-02-03T01:39:26.385Z,86.27
2023-02-03T01:41:56.475Z,86.21
2023-02-03T01:44:49.399Z,86.05
2023-02-03T01:47:38.893Z,85.99
2023-02-03T01:50:11.502Z,85.97
2023-02-03T01:52:44.210Z,85.90
2023-02-03T01:55:20.835Z,85.92
2023-02-03T01:58:08.840Z,85.79
2023-02-03T02:00:36.968Z,85.80
2023-02-03T02:03:07.702Z,85.70
2023-02-03T02:05:46.129Z,85.87
2023-02-03T02:08:18.062Z,85.79
2023-02-03T02:10:46.348Z,85.57
2023-02-03T02:13:16.613Z,85.67
2023-02-03T02:16:04.174Z,85.69
2023-02-03T02:18:56.560Z,85.59
2023-02-03T02:21:55.265Z,85.52
2023-02-03T02:24:44.295Z,85.53
2023-02-03T02:28:13.892Z,85.42
2023-02-03T02:31:04.565Z,85.21
2023-02-03T02:34:13.591Z,85.63
2023-02-03T02:37:53.047Z,85.39
2023-02-03T02:40:52.355Z,85.42
2023-02-03T02:44:01.082Z,85.52
2023-02-03T02:46:42.854Z,85.36
2023-02-03T02:49:27.056Z,85.41
2023-02-03T02:51:59.081Z,85.28
2023-02-03T02:54:30.678Z,85.18
2023-02-03T02:57:05.005Z,85.51
2023-02-03T02:59:33.268Z,85.07
2023-02-03T03:02:02.148Z,85.56
2023-02-03T03:04:33.881Z,85.34
2023-02-03T03:07:10.450Z,85.08
2023-02-03T03:09:44.172Z,85.14
2023-02-03T03:12:40.173Z,85.10
2023-02-03T03:15:20.496Z,85.06
2023-02-03T03:17:59.289Z,84.74
2023-02-03T03:20:28.763Z,84.62
2023-02-03T03:23:07.638Z,85.07
2023-02-03T03:25:44.155Z,84.82
2023-02-03T03:28:24.025Z,84.68
2023-02-03T03:30:52.757Z,85.41
2023-02-03T03:33:22.487Z,85.15
2023-02-03T03:36:01.980Z,84.84
2023-02-03T03:38:42.355Z,84.99
2023-02-03T03:41:28.649Z,85.76
2023-02-03T03:44:02.262Z,85.14
2023-02-03T03:46:40.209Z,84.87
2023-02-03T03:49:10.728Z,84.55
2023-02-03T03:51:47.050Z,84.58
2023-02-03T03:54:20.521Z,84.31
2023-02-03T03:56:58.245Z,84.28
2023-02-03T03:59:31.718Z,84.21
2023-02-03T04:02:04.918Z,83.78
2023-02-03T04:04:36.918Z,84.29
2023-02-03T04:07:05.132Z,85.26
2023-02-03T04:09:36.661Z,86.07
2023-02-03T04:12:06.499Z,85.68
2023-02-03T04:14:38.904Z,85.20
2023-02-03T04:17:07.134Z,84.87
2023-02-03T04:19:35.207Z,85.39
2023-02-03T04:22:03.278Z,86.03
2023-02-03T04:24:31.357Z,86.35
2023-02-03T04:26:59.336Z,86.29
2023-02-03T04:29:27.236Z,85.45
2023-02-03T04:31:55.294Z,85.09
2023-02-03T04:34:23.321Z,85.74
2023-02-03T04:36:51.329Z,85.41
2023-02-03T04:39:19.351Z,85.62
2023-02-03T04:41:47.327Z,85.49
2023-02-03T04:44:15.246Z,85.01
2023-02-03T04:46:43.200Z,85.05
2023-02-03T04:49:11.710Z,84.42
2023-02-03T04:51:39.799Z,85.44
2023-02-03T04:54:08.009Z,85.97
2023-02-03T04:56:36.938Z,85.42
2023-02-03T04:59:04.923Z,85.17
2023-02-03T05:01:32.965Z,85.21
2023-02-03T05:04:00.982Z,85.09
2023-02-03T05:06:30.008Z,84.62
2023-02-03T05:08:58.286Z,84.39
2023-02-03T05:11:26.767Z,84.26
2023-02-03T05:13:55.753Z,84.28
2023-02-03T05:16:23.973Z,84.51
2023-02-03T05:18:51.954Z,84.69
2023-02-03T05:21:19.995Z,84.71
2023-02-03T05:23:48.037Z,85.26
2023-02-03T05:26:16.234Z,85.13
2023-02-03T05:28:44.270Z,85.14
2023-02-03T05:31:12.337Z,85.34
2023-02-03T05:33:40.356Z,85.67
2023-02-03T05:36:09.394Z,86.49
2023-02-03T05:38:37.487Z,88.21
2023-02-03T05:41:24.514Z,88.21
2023-02-03T05:43:52.800Z,88.43
2023-02-03T05:46:20.803Z,88.60
2023-02-03T05:48:48.826Z,88.72
2023-02-03T05:51:16.815Z,89.04
2023-02-03T05:53:44.813Z,89.13
2023-02-03T05:56:12.832Z,89.53
2023-02-03T05:58:40.808Z,89.38
2023-02-03T06:01:08.828Z,90.24
2023-02-03T06:03:36.920Z,90.85
2023-02-03T06:06:05.043Z,90.44
2023-02-03T06:08:33.060Z,90.49
2023-02-03T06:11:01.147Z,91.29
2023-02-03T06:13:29.255Z,91.75
2023-02-03T06:15:57.353Z,91.47
2023-02-03T06:18:25.457Z,91.43
2023-02-03T06:20:53.542Z,91.37
2023-02-03T06:23:21.524Z,91.63
2023-02-03T06:25:51.209Z,91.66
2023-02-03T06:28:19.321Z,91.89
2023-02-03T06:30:51.963Z,91.78
2023-02-03T06:33:20.435Z,92.09
2023-02-03T06:35:48.381Z,91.93
2023-02-03T06:38:16.469Z,91.73
2023-02-03T06:40:48.041Z,91.91
2023-02-03T06:43:16.101Z,92.01
2023-02-03T06:45:47.435Z,91.63
2023-02-03T06:48:15.593Z,92.00
2023-02-03T06:50:46.918Z,92.21
2023-02-03T06:53:16.245Z,92.75
2023-02-03T06:55:44.212Z,92.79
2023-02-03T06:58:12.219Z,92.82
2023-02-03T07:00:40.346Z,92.62
2023-02-03T07:03:08.429Z,92.72
2023-02-03T07:05:36.861Z,92.51
2023-02-03T07:08:05.155Z,92.50
2023-02-03T07:10:33.138Z,92.76
2023-02-03T07:13:06.757Z,92.95
2023-02-03T07:15:36.273Z,93.41
2023-02-03T07:18:04.501Z,93.64
2023-02-03T07:20:32.986Z,93.52
2023-02-03T07:23:01.078Z,93.45
2023-02-03T07:25:29.174Z,93.45
2023-02-03T07:27:57.343Z,93.50
2023-02-03T07:30:25.419Z,93.05
2023-02-03T07:32:53.845Z,93.04
2023-02-03T07:35:22.114Z,93.61
2023-02-03T07:37:50.162Z,94.25
2023-02-03T07:40:18.737Z,94.41
2023-02-03T07:42:49.881Z,94.48
2023-02-03T07:45:19.203Z,94.68
2023-02-03T07:47:47.243Z,94.41
2023-02-03T07:50:15.471Z,94.85
2023-02-03T07:52:43.820Z,94.53
2023-02-03T07:55:12.038Z,94.75
2023-02-03T07:57:43.364Z,94.99
2023-02-03T08:00:15.595Z,94.78
2023-02-03T08:02:44.091Z,94.37
2023-02-03T08:05:13.025Z,94.08
2023-02-03T08:07:41.813Z,93.87
2023-02-03T08:10:12.989Z,93.52
2023-02-03T08:12:45.111Z,93.17
2023-02-03T08:15:14.523Z,93.34
2023-02-03T08:17:44.417Z,93.32
2023-02-03T08:20:12.857Z,93.58
2023-02-03T08:22:40.901Z,93.52
2023-02-03T08:25:09.859Z,93.48
2023-02-03T08:27:38.833Z,93.72
2023-02-03T08:30:11.584Z,94.20
2023-02-03T08:32:39.569Z,94.58
2023-02-03T08:35:08.313Z,94.17
2023-02-03T08:37:36.543Z,94.09
2023-02-03T08:40:06.398Z,93.49
2023-02-03T08:42:34.448Z,93.53
2023-02-03T08:45:05.092Z,93.38
2023-02-03T08:47:33.389Z,94.25
2023-02-03T08:50:01.358Z,94.81
2023-02-03T08:52:29.421Z,95.38
2023-02-03T08:54:57.431Z,94.96
2023-02-03T08:57:25.431Z,95.43
2023-02-03T08:59:54.577Z,95.18
2023-02-03T09:02:22.607Z,95.24
2023-02-03T09:04:51.971Z,95.29
2023-02-03T09:07:20.223Z,95.72
2023-02-03T09:09:48.284Z,95.16
2023-02-03T09:12:16.754Z,95.32
2023-02-03T09:14:44.758Z,95.33
2023-02-03T09:17:12.743Z,95.29
2023-02-03T09:19:40.817Z,95.64
2023-02-03T09:22:08.974Z,95.52
2023-02-03T09:24:37.247Z,95.85
2023-02-03T09:27:05.312Z,95.70
2023-02-03T09:29:33.505Z,96.33
2023-02-03T09:32:07.007Z,96.26
2023-02-03T09:34:35.174Z,96.04
2023-02-03T09:37:04.387Z,96.04
2023-02-03T09:39:32.807Z,95.49
2023-02-03T09:42:28.710Z,95.28
2023-02-03T09:45:24.498Z,95.54
2023-02-03T09:47:55.461Z,95.83
2023-02-03T09:50:31.751Z,95.87
2023-02-03T09:53:06.498Z,96.05
2023-02-03T09:55:43.176Z,95.98
2023-02-03T09:58:21.324Z,96.00
2023-02-03T10:01:07.573Z,95.48
2023-02-03T10:03:48.382Z,95.96
2023-02-03T10:06:46.841Z,96.20
2023-02-03T10:09:57.610Z,96.43
2023-02-03T10:12:45.502Z,96.59
2023-02-03T10:15:43.829Z,96.60
2023-02-03T10:18:23.331Z,96.95
2023-02-03T10:21:00.248Z,97.21
2023-02-03T10:23:36.765Z,97.70
2023-02-03T10:26:15.823Z,97.87
2023-02-03T10:29:18.488Z,98.20
2023-02-03T10:31:47.730Z,97.71
2023-02-03T10:34:19.651Z,98.09
2023-02-03T10:36:56.216Z,98.29
2023-02-03T10:39:39.805Z,98.96
2023-02-03T10:42:10.798Z,98.41
2023-02-03T10:44:49.065Z,99.07
2023-02-03T10:47:42.861Z,98.90
2023-02-03T10:50:25.729Z,98.27
2023-02-03T10:53:13.893Z,98.39
2023-02-03T10:55:41.899Z,99.06
2023-02-03T10:58:34.174Z,99.05
2023-02-03T11:01:12.145Z,98.98
2023-02-03T11:04:04.003Z,98.93
2023-02-03T11:06:34.298Z,99.27
2023-02-03T11:09:02.933Z,98.82
2023-02-03T11:11:34.257Z,99.07
2023-02-03T11:14:02.200Z,99.28
2023-02-03T11:16:38.426Z,99.43
2023-02-03T11:19:20.847Z,99.42
2023-02-03T11:21:52.477Z,99.51
2023-02-03T11:24:39.582Z,99.84
2023-02-03T11:27:15.568Z,99.54
2023-02-03T11:29:50.391Z,99.89
2023-02-03T11:32:24.216Z,99.98
2023-02-03T11:35:02.235Z,100.00
2023-02-03T11:37:41.959Z,99.93
2023-02-03T11:40:11.455Z,99.80
2023-02-03T11:42:42.925Z,100.00
2023-02-03T11:45:29.292Z,99.92
2023-02-03T11:48:01.103Z,99.95
2023-02-03T11:50:40.924Z,99.89
2023-02-03T11:53:59.126Z,100.00
2023-02-03T11:57:13.947Z,99.88
2023-02-03T11:59:52.970Z,100.00
2023-02-03T12:03:01.030Z,99.99
2023-02-03T12:05:54.537Z,100.00
2023-02-03T12:08:49.405Z,100.00
2023-02-03T12:11:38.871Z,100.00
2023-02-03T12:14:36.593Z,100.00
2023-02-03T12:17:37.772Z,100.00
2023-02-03T12:20:29.247Z,100.00
2023-02-03T12:23:19.901Z,100.00
2023-02-03T12:26:32.486Z,100.00
2023-02-03T12:29:24.764Z,100.00
2023-02-03T12:32:01.680Z,100.00
2023-02-03T12:35:20.603Z,100.00
2023-02-03T12:37:58.928Z,100.00
2023-02-03T12:40:42.970Z,100.00
2023-02-03T12:43:17.081Z,100.00
2023-02-03T12:46:00.972Z,100.00
2023-02-03T12:48:38.936Z,100.00
2023-02-03T12:51:15.095Z,100.00
2023-02-03T12:53:51.907Z,100.00
2023-02-03T12:56:29.572Z,100.00
2023-02-03T12:59:06.696Z,100.00
2023-02-03T13:02:01.505Z,100.00
2023-02-03T13:04:41.629Z,99.96
2023-02-03T13:07:27.509Z,99.68
2023-02-03T13:10:24.883Z,99.72
2023-02-03T13:13:00.007Z,99.62
2023-02-03T13:15:37.360Z,99.83
2023-02-03T13:18:29.519Z,99.48
2023-02-03T13:20:57.912Z,99.40
2023-02-03T13:23:26.818Z,98.97
2023-02-03T13:26:24.643Z,98.15
2023-02-03T13:29:08.183Z,97.74
2023-02-03T13:32:10.995Z,97.88
2023-02-03T13:35:21.603Z,98.00
2023-02-03T13:38:05.515Z,96.59
2023-02-03T13:41:18.236Z,96.34
2023-02-03T13:43:52.472Z,95.18
2023-02-03T13:46:31.467Z,95.55
2023-02-03T13:49:03.137Z,95.78
2023-02-03T13:51:43.345Z,95.16
2023-02-03T13:54:27.731Z,94.97
2023-02-03T13:57:05.998Z,94.12
2023-02-03T13:59:37.050Z,93.58
2023-02-03T14:02:23.507Z,93.90
2023-02-03T14:04:58.041Z,92.08
2023-02-03T14:07:38.786Z,92.80
2023-02-03T14:10:15.942Z,91.94
2023-02-03T14:12:50.035Z,92.11
2023-02-03T14:15:33.537Z,92.28
2023-02-03T14:18:35.179Z,91.69
2023-02-03T14:21:16.198Z,92.40
2023-02-03T14:23:51.142Z,92.24
2023-02-03T14:26:42.379Z,91.87
2023-02-03T14:29:27.870Z,91.98
2023-02-03T14:32:11.164Z,91.75
2023-02-03T14:34:45.456Z,92.72
2023-02-03T14:37:28.788Z,93.52
2023-02-03T14:40:14.157Z,92.44
2023-02-03T14:43:10.514Z,92.15
2023-02-03T14:46:01.856Z,92.64
2023-02-03T14:48:52.151Z,91.44
2023-02-03T14:51:56.476Z,92.11
2023-02-03T14:54:53.968Z,92.22
2023-02-03T14:57:51.788Z,92.52
2023-02-03T15:00:19.817Z,93.29
2023-02-03T15:03:06.729Z,93.10
2023-02-03T15:05:44.174Z,92.69
2023-02-03T15:08:46.458Z,92.72
2023-02-03T15:11:33.788Z,93.22
2023-02-03T15:14:27.847Z,92.60
2023-02-03T15:17:01.669Z,92.16
2023-02-03T15:19:36.036Z,91.10
2023-02-03T15:22:29.331Z,92.21
2023-02-03T15:25:04.042Z,92.29
2023-02-03T15:27:32.925Z,91.94
2023-02-03T15:30:23.895Z,92.18
2023-02-03T15:33:16.883Z,92.07
2023-02-03T15:35:48.112Z,92.66
2023-02-03T15:38:33.262Z,92.08
2023-02-03T15:41:02.439Z,90.79
2023-02-03T15:43:41.815Z,91.29
2023-02-03T15:46:36.028Z,92.46
2023-02-03T15:49:19.256Z,91.96
2023-02-03T15:51:57.952Z,92.86
2023-02-03T15:54:41.491Z,92.56
2023-02-03T15:57:20.381Z,93.25
2023-02-03T16:00:31.513Z,93.21
2023-02-03T16:03:00.933Z,93.50
2023-02-03T16:05:34.327Z,93.53
2023-02-03T16:08:46.132Z,93.32
2023-02-03T16:11:41.671Z,93.68
2023-02-03T16:14:32.624Z,94.02
2023-02-03T16:17:05.422Z,94.84
2023-02-03T16:19:38.171Z,95.37
2023-02-03T16:22:32.213Z,95.38
2023-02-03T16:25:21.029Z,95.48
2023-02-03T16:28:23.779Z,95.65
2023-02-03T16:31:12.888Z,95.74
2023-02-03T16:34:08.127Z,95.90
2023-02-03T16:37:03.298Z,96.24
2023-02-03T16:39:50.566Z,96.51
2023-02-03T16:42:40.078Z,96.17
2023-02-03T16:45:37.299Z,96.13
2023-02-03T16:48:24.254Z,95.92
2023-02-03T16:50:59.739Z,96.00
2023-02-03T16:53:31.614Z,95.81
2023-02-03T16:56:04.421Z,95.52
2023-02-03T16:58:32.697Z,95.84
2023-02-03T17:01:04.510Z,95.57
2023-02-03T17:03:36.011Z,95.31
2023-02-03T17:06:13.016Z,94.96
2023-02-03T17:08:42.241Z,94.12
2023-02-03T17:11:20.673Z,94.41
2023-02-03T17:13:50.718Z,94.51
2023-02-03T17:16:26.136Z,94.81
2023-02-03T17:18:54.933Z,94.59
2023-02-03T17:21:27.084Z,95.18
2023-02-03T17:23:55.343Z,94.79
2023-02-03T17:26:23.316Z,94.96
2023-02-03T17:28:51.421Z,95.32
2023-02-03T17:31:20.912Z,95.33
2023-02-03T17:33:52.421Z,95.13
2023-02-03T17:36:21.954Z,94.98
2023-02-03T17:55:33.199Z,94.19
2023-02-03T17:58:01.709Z,93.95
2023-02-03T18:00:30.023Z,93.88
2023-02-03T18:02:58.713Z,93.76
2023-02-03T18:05:28.832Z,93.67
2023-02-03T18:07:56.924Z,94.09
2023-02-03T18:10:25.130Z,93.93
2023-02-03T18:12:53.299Z,94.10
2023-02-03T18:15:21.325Z,93.81
2023-02-03T18:17:49.365Z,93.91
2023-02-03T18:20:17.604Z,94.07
2023-02-03T18:22:45.607Z,94.21
2023-02-03T18:25:17.198Z,94.27
2023-02-03T18:27:45.257Z,94.26
2023-02-03T18:30:15.121Z,94.44
2023-02-03T18:32:43.958Z,93.85
2023-02-03T18:35:16.682Z,94.10
2023-02-03T18:37:45.002Z,94.09
2023-02-03T18:40:13.224Z,94.23
2023-02-03T18:42:41.174Z,94.39
2023-02-03T18:45:11.596Z,94.28
2023-02-03T18:47:40.182Z,94.75
2023-02-03T18:50:08.642Z,95.22
2023-02-03T18:52:37.676Z,95.64
2023-02-03T18:55:06.337Z,96.02
2023-02-03T18:57:34.521Z,95.74
2023-02-03T19:00:04.365Z,95.68
2023-02-03T19:02:33.873Z,95.82
2023-02-03T19:05:02.133Z,95.18
2023-02-03T19:07:30.322Z,94.99
2023-02-03T19:09:58.269Z,94.74
2023-02-03T19:12:27.492Z,94.75
2023-02-03T19:14:55.698Z,94.44
2023-02-03T19:17:23.679Z,94.51
2023-02-03T19:19:51.784Z,94.26
2023-02-03T19:22:19.834Z,94.36
2023-02-03T19:24:47.956Z,93.94
2023-02-03T19:27:15.908Z,94.58
2023-02-03T19:29:43.871Z,95.34
2023-02-03T19:32:12.939Z,95.65
2023-02-03T19:34:41.067Z,96.77
2023-02-03T19:37:09.207Z,97.84
2023-02-03T19:39:37.293Z,98.39
2023-02-03T19:42:05.391Z,98.50
2023-02-03T19:44:33.530Z,98.48
2023-02-03T19:47:03.284Z,98.37
2023-02-03T19:49:31.638Z,99.09
2023-02-03T19:52:00.071Z,98.43
2023-02-03T19:54:28.207Z,98.61
2023-02-03T19:56:56.216Z,98.47
2023-02-03T19:59:24.277Z,98.51
2023-02-03T20:01:52.336Z,99.32
2023-02-03T20:04:20.596Z,99.58
2023-02-03T20:06:48.580Z,99.58
2023-02-03T20:09:16.694Z,98.52
2023-02-03T20:11:44.691Z,98.72
2023-02-03T20:14:13.781Z,97.97
2023-02-03T20:16:42.794Z,98.62
2023-02-03T20:19:11.394Z,97.99
2023-02-03T20:21:39.467Z,98.19
2023-02-03T20:24:07.502Z,96.85
2023-02-03T20:26:35.519Z,97.08
2023-02-03T20:29:03.674Z,96.97
2023-02-03T20:31:31.839Z,96.89
2023-02-03T20:33:59.908Z,97.00
2023-02-03T20:36:28.046Z,97.22
2023-02-03T20:38:56.478Z,97.00
2023-02-03T20:41:24.498Z,96.62
2023-02-03T20:43:52.539Z,95.10
2023-02-03T20:46:20.692Z,94.09
2023-02-03T20:48:48.812Z,93.62
2023-02-03T20:51:20.864Z,93.10
2023-02-03T20:53:50.072Z,92.51
2023-02-03T20:56:21.833Z,91.37
2023-02-03T20:58:49.845Z,91.95
2023-02-03T21:01:22.498Z,91.09
2023-02-03T21:04:10.235Z,88.99
2023-02-03T21:06:39.981Z,87.37
2023-02-03T21:09:20.880Z,87.46
2023-02-03T21:11:49.339Z,86.96
2023-02-03T21:14:29.593Z,86.00
2023-02-03T21:16:57.819Z,86.23
2023-02-03T21:19:30.136Z,86.33
2023-02-03T21:21:59.059Z,85.60
2023-02-03T21:24:35.459Z,86.20
2023-02-03T21:27:24.721Z,87.06
2023-02-03T21:29:56.422Z,88.05
2023-02-03T21:32:35.466Z,88.44
2023-02-03T21:35:31.794Z,88.79
2023-02-03T21:38:02.644Z,88.45
2023-02-03T21:40:34.973Z,88.31
2023-02-03T21:43:03.385Z,88.62
2023-02-03T21:45:38.395Z,88.30
2023-02-03T21:48:40.398Z,89.09
2023-02-03T21:51:23.450Z,88.20
2023-02-03T21:54:03.854Z,88.06
2023-02-03T21:56:41.729Z,88.15
2023-02-03T21:59:21.094Z,88.68
2023-02-03T22:01:49.776Z,88.97
2023-02-03T22:04:17.783Z,89.27
2023-02-03T22:06:50.467Z,88.63
2023-02-03T22:09:22.358Z,88.90
2023-02-03T22:11:51.707Z,88.55
2023-02-03T22:14:23.655Z,89.03
2023-02-03T22:16:51.623Z,89.39
2023-02-03T22:19:19.640Z,90.00
2023-02-03T22:21:49.700Z,89.89
2023-02-03T22:24:17.772Z,89.76
2023-02-03T22:26:45.714Z,89.63
2023-02-03T22:29:13.737Z,89.76
2023-02-03T22:31:42.798Z,90.49
2023-02-03T22:34:10.976Z,90.57
2023-02-03T22:36:39.222Z,91.61
2023-02-03T22:39:07.317Z,91.50
2023-02-03T22:41:35.265Z,92.26
2023-02-03T22:44:03.339Z,92.82
2023-02-03T22:46:31.302Z,92.40
2023-02-03T22:48:59.391Z,92.73
2023-02-03T22:51:27.394Z,92.79
2023-02-03T22:53:55.366Z,93.61
2023-02-03T22:56:23.758Z,93.54
2023-02-03T22:58:51.832Z,94.05
2023-02-03T23:01:20.006Z,94.27
2023-02-03T23:03:47.970Z,94.16
2023-02-03T23:06:16.037Z,94.80
2023-02-03T23:08:44.027Z,95.14
2023-02-03T23:11:12.036Z,95.40
2023-02-03T23:13:39.972Z,95.60
2023-02-03T23:16:07.946Z,95.95
2023-02-03T23:18:35.939Z,95.85
2023-02-03T23:21:03.996Z,95.68
2023-02-03T23:23:32.097Z,95.06
2023-02-03T23:26:00.108Z,94.31
2023-02-03T23:28:28.138Z,95.06
2023-02-03T23:30:56.414Z,96.03
2023-02-03T23:33:24.599Z,97.11
2023-02-03T23:35:55.256Z,97.47
2023-02-03T23:38:23.286Z,97.28
2023-02-03T23:40:51.270Z,97.39
2023-02-03T23:43:19.214Z,97.68
2023-02-03T23:45:47.526Z,97.31
2023-02-03T23:48:17.676Z,97.33
2023-02-03T23:50:45.671Z,97.66
2023-02-03T23:53:13.588Z,97.94
2023-02-03T23:55:41.515Z,97.87
2023-02-03T23:58:09.425Z,97.58
